Time;durP1;ratioP1;P1;durP2;ratioP2;P2;SDS_P1;SDS_P2;PMS_P1;PMS_P2;Temp;Humidity;BMP_temperature;BMP_pressure;BME280_temperature;BME280_humidity;BME280_pressure;Samples;Min_cycle;Max_cycle;Signal;HPM_P1;HPM_P2
2022/12/30 00:01:37;;;;;;;2.38;0.80;;;10.40;72.90;;;5.88;100.00;95576.53;5004092;28;20034;-48
2022/12/30 00:04:13;;;;;;;1.10;0.60;;;10.40;72.90;;;5.81;100.00;95584.59;4987969;28;20378;-47
2022/12/30 00:06:47;;;;;;;1.50;0.63;;;10.30;72.90;;;5.86;100.00;95591.81;4985889;28;20022;-47
2022/12/30 00:09:13;;;;;;;1.35;0.80;;;10.30;73.00;;;5.80;100.00;95589.09;5008544;28;20025;-48
2022/12/30 00:11:42;;;;;;;1.40;0.70;;;10.30;73.00;;;5.80;100.00;95583.81;4990713;28;20391;-49
2022/12/30 00:34:51;;;;;;;0.85;0.60;;;9.90;73.00;;;5.55;100.00;95607.88;4991425;28;20175;-48
2022/12/30 00:37:20;;;;;;;1.38;0.60;;;10.00;73.10;;;5.60;100.00;95615.09;4992616;28;20033;-48
2022/12/30 00:39:46;;;;;;;2.83;0.60;;;9.90;73.10;;;5.55;100.00;95618.44;4992961;28;20542;-47
2022/12/30 00:44:56;;;;;;;0.88;0.50;;;10.00;73.00;;;5.54;100.00;95619.47;4980921;28;20060;-54
2022/12/30 00:47:22;;;;;;;2.28;0.60;;;9.90;73.00;;;5.55;100.00;95617.66;4991450;28;20053;-52
2022/12/30 00:58:22;;;;;;;1.70;0.60;;;9.90;73.00;;;5.45;100.00;95626.16;4991501;28;20087;-49
2022/12/30 01:00:49;;;;;;;19.55;1.30;;;9.90;73.70;;;5.47;100.00;95633.84;4992454;28;20076;-47
2022/12/30 01:03:15;;;;;;;1.05;0.57;;;10.00;73.00;;;5.43;100.00;95630.84;4992022;28;20025;-49
2022/12/30 01:05:48;;;;;;;2.20;0.75;;;9.90;72.90;;;5.43;100.00;95638.78;4990233;28;20643;-47
2022/12/30 01:08:14;;;;;;;1.42;0.50;;;10.00;72.90;;;5.43;100.00;95632.69;4992772;28;20033;-47
2022/12/30 01:10:40;;;;;;;2.40;0.70;;;9.90;72.90;;;5.42;100.00;95637.19;4971333;28;20465;-50
2022/12/30 01:13:13;;;;;;;4.38;0.65;;;9.90;72.90;;;5.41;100.00;95640.84;5002261;28;20532;-50
2022/12/30 01:15:41;;;;;;;1.13;0.68;;;9.90;73.00;;;5.40;100.00;95644.53;4979938;28;20512;-47
2022/12/30 01:18:14;;;;;;;2.38;0.70;;;10.00;72.90;;;5.37;100.00;95642.34;4986975;28;20473;-48
2022/12/30 01:20:40;;;;;;;1.10;0.65;;;9.90;72.80;;;5.34;100.00;95637.53;4987891;28;20022;-48
2022/12/30 01:23:09;;;;;;;1.65;0.50;;;9.90;72.80;;;5.28;100.00;95644.50;4981496;28;20060;-48
2022/12/30 01:25:40;;;;;;;7.05;0.85;;;9.90;72.90;;;5.30;100.00;95657.50;4987602;28;20018;-48
2022/12/30 01:28:13;;;;;;;0.82;0.68;;;9.80;72.90;;;5.31;100.00;95657.25;4987181;28;20030;-53
2022/12/30 01:30:41;;;;;;;2.38;0.77;;;9.80;73.00;;;5.30;100.00;95660.94;4971520;28;20026;-49
2022/12/30 01:33:07;;;;;;;1.42;0.70;;;9.80;73.00;;;5.32;100.00;95672.06;4987917;28;20398;-50
2022/12/30 01:35:42;;;;;;;2.22;0.70;;;9.80;73.10;;;5.29;100.00;95669.09;4977939;28;20030;-48
2022/12/30 01:38:11;;;;;;;0.65;0.55;;;9.80;73.10;;;5.28;100.00;95670.13;4973111;28;20045;-50
2022/12/30 01:40:49;;;;;;;1.98;0.68;;;9.80;73.20;;;5.29;100.00;95675.16;5005985;28;20436;-53
2022/12/30 01:43:46;;;;;;;2.40;0.60;;;9.80;73.30;;;5.25;100.00;95681.16;5003007;28;20449;-49
2022/12/30 01:46:26;;;;;;;1.35;0.60;;;9.80;73.20;;;5.25;100.00;95678.50;5003719;28;20034;-49
2022/12/30 01:48:59;;;;;;;0.98;0.70;;;9.80;73.30;;;5.25;100.00;95673.22;4990488;28;20037;-50
2022/12/30 01:51:31;;;;;;;2.10;0.75;;;9.80;73.30;;;5.22;100.00;95671.84;4987396;28;20022;-47
2022/12/30 01:54:02;;;;;;;1.92;0.60;;;9.70;73.30;;;5.20;100.00;95668.66;4984681;28;20030;-50
2022/12/30 01:56:41;;;;;;;0.98;0.52;;;9.70;73.30;;;5.22;100.00;95673.69;4990442;28;20113;-47
2022/12/30 01:59:21;;;;;;;1.85;0.70;;;9.70;73.30;;;5.24;100.00;95674.28;4990171;28;20022;-53
2022/12/30 02:01:49;;;;;;;0.80;0.60;;;9.70;73.30;;;5.23;100.00;95680.56;5002996;28;20041;-56
2022/12/30 02:04:22;;;;;;;2.05;0.70;;;9.80;73.30;;;5.23;100.00;95673.47;5004033;28;20041;-55
2022/12/30 02:07:09;;;;;;;0.85;0.70;;;9.80;73.30;;;5.24;100.00;95677.72;4973926;28;20169;-50
2022/12/30 02:09:44;;;;;;;0.90;0.60;;;9.80;73.30;;;5.23;100.00;95686.69;4991147;28;20108;-48
2022/12/30 02:12:12;;;;;;;0.98;0.63;;;9.80;73.30;;;5.21;100.00;95682.66;4989203;28;20025;-56
2022/12/30 02:14:46;;;;;;;1.00;0.93;;;9.80;73.30;;;5.20;100.00;95691.59;4990370;28;20021;-50
2022/12/30 02:17:49;;;;;;;0.75;0.70;;;9.80;74.10;;;5.18;100.00;95681.25;4988812;28;20029;-52
2022/12/30 02:20:51;;;;;;;4.95;0.90;;;9.80;73.30;;;5.20;100.00;95686.31;4989695;28;20025;-49
2022/12/30 02:24:03;;;;;;;0.50;0.50;;;9.80;73.30;;;5.15;100.00;95673.78;4981546;28;20386;-49
2022/12/30 02:27:40;;;;;;;3.33;0.60;;;9.70;73.10;;;5.12;100.00;95668.97;5004817;28;20053;-51
2022/12/30 02:30:47;;;;;;;0.98;0.70;;;9.70;73.90;;;5.07;100.00;95660.91;4984379;28;20026;-49
2022/12/30 02:33:40;;;;;;;1.50;0.70;;;9.70;73.20;;;5.10;100.00;95663.09;4988380;28;20017;-52
2022/12/30 02:36:49;;;;;;;0.77;0.52;;;9.70;73.20;;;5.09;100.00;95666.78;4973137;28;20026;-50
2022/12/30 02:40:26;;;;;;;1.98;0.82;;;9.70;73.10;;;5.06;100.00;95657.47;5002880;28;20052;-50
2022/12/30 02:46:06;;;;;;;2.65;0.80;;;9.60;73.10;;;5.04;100.00;95656.09;4998791;28;20087;-55
2022/12/30 02:48:42;;;;;;;3.20;0.80;;;9.60;73.20;;;5.04;100.00;95648.97;4977086;28;20038;-49
2022/12/30 02:54:00;;;;;;;0.80;0.68;;;9.60;73.20;;;4.98;100.00;95641.97;4995150;28;20034;-53
2022/12/30 02:56:26;;;;;;;2.22;0.80;;;9.60;73.20;;;4.95;100.00;95647.72;5005372;28;20025;-50
2022/12/30 03:05:36;;;;;;;1.52;0.80;;;9.60;73.30;;;4.98;100.00;95639.34;4982389;28;20033;-48
2022/12/30 03:08:29;;;;;;;0.93;0.70;;;9.60;73.30;;;4.94;100.00;95634.72;4997543;28;20100;-48
2022/12/30 03:11:15;;;;;;;1.35;0.70;;;9.50;73.20;;;4.87;100.00;95640.91;4970833;28;20432;-48
2022/12/30 03:14:14;;;;;;;0.55;0.55;;;9.60;73.30;;;4.84;100.00;95635.28;4986600;28;20049;-55
2022/12/30 03:16:56;;;;;;;2.60;0.60;;;9.60;74.00;;;4.85;100.00;95645.59;4989127;28;20057;-52
2022/12/30 03:19:42;;;;;;;0.75;0.50;;;9.50;73.20;;;4.80;100.00;95647.34;4989128;28;20396;-49
2022/12/30 03:28:00;;;;;;;2.05;0.40;;;9.50;73.30;;;4.80;100.00;95634.16;4996754;28;20624;-50
2022/12/30 03:30:35;;;;;;;0.40;0.40;;;9.50;73.40;;;4.80;100.00;95637.59;4988936;28;20071;-51
2022/12/30 03:33:02;;;;;;;1.45;0.40;;;9.50;73.30;;;4.78;100.00;95626.44;5004312;28;20728;-48
2022/12/30 03:35:38;;;;;;;0.60;0.50;;;9.50;73.30;;;4.73;100.00;95607.84;5007307;28;20198;-48
2022/12/30 03:38:10;;;;;;;0.70;0.60;;;9.50;73.30;;;4.73;100.00;95596.47;4992957;28;20053;-48
2022/12/30 03:40:43;;;;;;;0.60;0.40;;;9.40;73.20;;;4.66;100.00;95591.31;4992116;28;20064;-49
2022/12/30 03:43:10;;;;;;;;;;;9.40;73.20;;;4.63;100.00;95587.28;4976610;28;20550;-48
2022/12/30 03:45:39;;;;;;;0.88;0.50;;;9.40;73.00;;;4.55;100.00;95586.81;4992684;28;19983;-50
2022/12/30 03:48:07;;;;;;;0.60;0.50;;;9.30;73.10;;;4.51;100.00;95572.47;4978959;28;20028;-51
2022/12/30 03:50:39;;;;;;;0.50;0.50;;;9.30;73.10;;;4.50;100.00;95568.22;4993767;28;20036;-50
2022/12/30 03:53:08;;;;;;;3.33;0.50;;;9.30;73.20;;;4.45;100.00;95566.28;4992647;28;20025;-50
2022/12/30 03:55:33;;;;;;;0.63;0.50;;;9.20;73.20;;;4.45;100.00;95563.63;4990858;28;20030;-48
2022/12/30 03:57:59;;;;;;;0.50;0.40;;;9.20;73.30;;;4.48;100.00;95565.00;4993419;28;20048;-54
2022/12/30 04:00:25;;;;;;;0.40;0.40;;;9.20;73.30;;;4.44;100.00;95563.84;4978013;28;20471;-59
2022/12/30 04:02:51;;;;;;;0.50;0.50;;;9.10;73.30;;;4.41;100.00;95576.44;5001372;28;20496;-50
2022/12/30 04:05:25;;;;;;;2.50;0.50;;;9.10;73.30;;;4.38;100.00;95578.75;4991461;28;20013;-50
2022/12/30 04:07:51;;;;;;;0.75;0.40;;;9.10;73.40;;;4.34;100.00;95577.59;4991355;28;20045;-48
2022/12/30 04:10:20;;;;;;;0.57;0.50;;;9.00;73.30;;;4.34;100.00;95575.75;4991950;28;20033;-52
2022/12/30 04:12:55;;;;;;;1.10;0.32;;;9.00;73.30;;;4.30;100.00;95579.06;4992122;28;20021;-52
2022/12/30 04:15:26;;;;;;;0.40;0.40;;;9.00;73.40;;;4.28;100.00;95571.38;4999399;28;20474;-51
2022/12/30 04:17:58;;;;;;;0.40;0.30;;;8.90;73.30;;;4.24;100.00;95572.88;4988540;28;20030;-48
2022/12/30 04:20:27;;;;;;;0.32;0.30;;;8.90;73.30;;;4.22;100.00;95561.72;4992424;28;20036;-56
2022/12/30 04:22:58;;;;;;;0.40;0.40;;;8.90;73.20;;;4.17;100.00;95569.53;4989671;28;20030;-51
2022/12/30 04:25:27;;;;;;;0.60;0.40;;;8.90;73.10;;;4.12;100.00;95556.19;4955554;28;20022;-55
2022/12/30 04:27:53;;;;;;;0.30;0.30;;;8.80;73.00;;;4.05;100.00;95547.59;4972693;28;20029;-48
2022/12/30 04:30:30;;;;;;;0.55;0.40;;;8.80;73.00;;;3.96;100.00;95549.72;4989858;28;20826;-52
2022/12/30 04:32:59;;;;;;;0.47;0.30;;;8.70;72.90;;;3.89;100.00;95555.09;4991243;28;20030;-48
2022/12/30 04:35:28;;;;;;;0.30;0.30;;;8.70;72.90;;;3.79;100.00;95552.19;4991049;28;20112;-49
2022/12/30 04:37:57;;;;;;;3.58;1.10;;;8.60;72.90;;;3.76;100.00;95544.72;4992222;28;20049;-49
2022/12/30 04:40:23;;;;;;;2.30;0.50;;;8.60;72.90;;;3.70;100.00;95553.50;4973229;28;20049;-53
2022/12/30 04:42:51;;;;;;;7.88;0.85;;;8.50;72.90;;;3.71;100.00;95552.47;4990214;28;20061;-54
2022/12/30 04:45:17;;;;;;;9.70;1.30;;;8.40;72.90;;;3.69;100.00;95555.31;4990333;28;20032;-53
2022/12/30 04:47:43;;;;;;;0.45;0.40;;;8.40;73.00;;;3.63;100.00;95548.31;4987238;28;20030;-53
2022/12/30 04:50:28;;;;;;;0.45;0.40;;;8.30;72.90;;;3.58;100.00;95560.56;4987884;28;20069;-51
2022/12/30 04:52:57;;;;;;;0.40;0.40;;;8.30;72.90;;;3.50;100.00;95558.19;4977352;28;20029;-49
2022/12/30 04:55:26;;;;;;;0.60;0.50;;;8.20;72.90;;;3.46;100.00;95555.22;4983858;28;20033;-54
2022/12/30 04:57:55;;;;;;;0.30;0.30;;;8.20;73.10;;;3.45;100.00;95557.03;4990609;28;20021;-52
2022/12/30 05:00:21;;;;;;;1.48;0.30;;;8.10;73.00;;;3.39;100.00;95543.97;4976812;28;20054;-52
2022/12/30 05:02:47;;;;;;;6.43;1.30;;;8.10;72.90;;;3.28;100.00;95544.69;4976650;28;20105;-49
2022/12/30 05:05:13;;;;;;;2.58;1.20;;;8.00;72.80;;;3.17;100.00;95538.31;4989316;28;20022;-49
2022/12/30 05:07:41;;;;;;;5.75;0.85;;;7.90;72.60;;;3.03;100.00;95537.63;4978990;28;20488;-53
2022/12/30 05:10:18;;;;;;;0.68;0.40;;;7.90;72.60;;;2.98;100.00;95534.88;4990618;28;20362;-49
2022/12/30 05:12:44;;;;;;;5.13;1.00;;;7.80;72.50;;;2.96;100.00;95539.53;4989707;28;20033;-49
2022/12/30 05:15:12;;;;;;;0.88;0.43;;;7.70;72.60;;;2.93;100.00;95542.59;5007024;28;20064;-49
2022/12/30 05:17:41;;;;;;;0.40;0.40;;;7.60;72.70;;;2.89;100.00;95544.88;4989328;28;20025;-49
2022/12/30 05:20:18;;;;;;;0.40;0.40;;;7.60;72.80;;;2.81;100.00;95550.41;5006749;28;20104;-49
2022/12/30 05:22:44;;;;;;;0.40;0.40;;;7.60;72.80;;;2.75;100.00;95554.69;4988644;28;20049;-49
2022/12/30 05:27:58;;;;;;;16.05;1.08;;;7.50;72.80;;;2.61;100.00;95542.69;4973299;28;20111;-56
2022/12/30 05:30:30;;;;;;;0.57;0.50;;;7.40;72.80;;;2.59;100.00;95542.09;4990672;28;20100;-50
2022/12/30 05:33:02;;;;;;;2.60;0.52;;;7.40;72.90;;;2.52;100.00;95546.59;4990785;28;20041;-49
2022/12/30 05:35:30;;;;;;;0.40;0.40;;;7.30;72.70;;;2.54;100.00;95545.38;4990409;28;20057;-49
2022/12/30 05:37:56;;;;;;;0.50;0.50;;;7.30;72.90;;;2.49;100.00;95541.78;4989554;28;20021;-50
2022/12/30 05:40:25;;;;;;;0.95;0.57;;;7.20;72.90;;;2.47;100.00;95547.22;4990294;28;20032;-51
2022/12/30 05:42:59;;;;;;;0.50;0.43;;;7.20;73.00;;;2.45;100.00;95541.41;4994155;28;20128;-53
2022/12/30 05:45:25;;;;;;;0.50;0.50;;;7.20;73.00;;;2.38;100.00;95543.25;4991137;28;20030;-50
2022/12/30 05:47:57;;;;;;;7.50;0.57;;;7.10;72.80;;;2.28;100.00;95541.09;4983815;28;20489;-50
2022/12/30 05:50:26;;;;;;;0.50;0.50;;;7.10;72.70;;;2.19;100.00;95542.38;4983494;28;20080;-52
2022/12/30 05:53:01;;;;;;;0.70;0.60;;;7.00;72.60;;;2.17;100.00;95541.81;4988653;28;20496;-50
2022/12/30 05:55:27;;;;;;;0.50;0.50;;;7.00;72.60;;;2.08;100.00;95554.38;4977233;28;20041;-53
2022/12/30 05:57:58;;;;;;;0.90;0.60;;;6.90;72.50;;;2.00;100.00;95545.94;4978478;28;20376;-53
2022/12/30 06:00:24;;;;;;;0.70;0.70;;;6.90;72.60;;;1.96;100.00;95548.19;5005050;28;20079;-52
2022/12/30 06:02:53;;;;;;;1.20;1.00;;;6.80;72.50;;;1.90;100.00;95548.25;4992966;28;20552;-49
2022/12/30 06:05:18;;;;;;;4.10;1.20;;;6.70;72.40;;;1.81;100.00;95550.28;4989811;28;20105;-53
2022/12/30 06:07:44;;;;;;;2.97;1.00;;;6.70;72.40;;;1.77;100.00;95538.63;4990187;28;20100;-51
2022/12/30 06:10:14;;;;;;;1.35;0.90;;;6.60;72.40;;;1.70;100.00;95551.78;4983925;28;20057;-51
2022/12/30 06:12:47;;;;;;;1.55;1.30;;;6.50;72.40;;;1.63;100.00;95543.13;4995887;28;20033;-55
2022/12/30 06:15:12;;;;;;;32.03;2.10;;;6.50;72.50;;;1.60;100.00;95552.22;5004741;28;20094;-53
2022/12/30 06:17:41;;;;;;;4.88;1.38;;;6.40;72.50;;;1.53;100.00;95546.19;4988931;28;20034;-49
2022/12/30 06:20:08;;;;;;;3.15;1.60;;;6.40;72.60;;;1.49;100.00;95539.75;4988988;28;20079;-53
2022/12/30 06:22:40;;;;;;;3.13;1.20;;;6.30;72.60;;;1.47;100.00;95540.97;4987665;28;20071;-55
2022/12/30 06:25:09;;;;;;;2.03;1.30;;;6.30;72.70;;;1.46;100.00;95544.59;4984652;28;20026;-51
2022/12/30 06:27:35;;;;;;;5.13;1.80;;;6.20;72.80;;;1.43;100.00;95543.19;4996839;28;20030;-53
2022/12/30 06:30:11;;;;;;;4.00;2.83;;;6.20;72.90;;;1.44;100.00;95544.81;4993120;28;20030;-50
2022/12/30 06:33:02;;;;;;;2.20;1.85;;;6.20;73.00;;;1.45;100.00;95556.13;4989717;28;20057;-50
2022/12/30 06:35:31;;;;;;;3.25;1.65;;;6.20;73.10;;;1.45;100.00;95556.94;4981274;28;20542;-50
2022/12/30 06:37:57;;;;;;;79.88;3.83;;;6.20;73.20;;;1.42;100.00;95561.78;4988668;28;20523;-54
2022/12/30 06:40:23;;;;;;;38.33;2.75;;;6.10;73.10;;;1.35;100.00;95562.63;4988667;28;20038;-50
2022/12/30 06:42:54;;;;;;;2.08;1.80;;;6.10;73.00;;;1.33;100.00;95569.09;4989201;28;20087;-55
2022/12/30 06:45:23;;;;;;;51.35;3.35;;;6.10;72.90;;;1.30;100.00;95570.31;4988547;28;20029;-57
2022/12/30 06:47:52;;;;;;;2.33;1.50;;;6.10;72.90;;;1.28;100.00;95559.19;4988847;28;20025;-49
2022/12/30 06:50:18;;;;;;;2.60;1.40;;;6.00;73.00;;;1.28;100.00;95550.53;4978245;28;20037;-52
2022/12/30 06:52:44;;;;;;;7.43;1.60;;;6.00;73.00;;;1.17;100.00;95553.81;4985923;28;20381;-49
2022/12/30 06:55:30;;;;;;;22.30;2.67;;;6.00;72.90;;;1.09;100.00;95549.56;4968812;28;20465;-50
2022/12/30 06:57:56;;;;;;;8.10;3.13;;;5.90;72.80;;;1.06;100.00;95552.59;4976058;28;20489;-57
2022/12/30 07:00:22;;;;;;;56.05;5.00;;;5.90;72.90;;;1.04;100.00;95559.88;4986736;28;20564;-51
2022/12/30 07:02:49;;;;;;;6.60;3.20;;;5.90;73.00;;;1.02;100.00;95560.06;4986523;28;20030;-53
2022/12/30 07:05:15;;;;;;;23.27;2.30;;;5.90;73.10;;;1.00;100.00;95553.41;4986263;28;20317;-49
2022/12/30 07:07:41;;;;;;;2.90;2.10;;;5.90;74.00;;;0.99;100.00;95552.63;5004411;28;20470;-50
2022/12/30 07:10:07;;;;;;;3.92;1.90;;;5.80;73.10;;;1.00;100.00;95542.94;4990160;28;20037;-56
2022/12/30 07:12:33;;;;;;;9.30;2.25;;;5.80;73.20;;;1.01;100.00;95545.34;4924499;28;26265;-49
2022/12/30 07:14:59;;;;;;;4.03;1.95;;;5.90;73.30;;;1.04;100.00;95550.19;4984522;28;20049;-54
2022/12/30 07:17:25;;;;;;;3.45;1.60;;;5.90;73.30;;;1.09;100.00;95554.81;4981942;28;20054;-51
2022/12/30 07:19:56;;;;;;;21.35;1.88;;;5.90;73.40;;;1.11;100.00;95564.09;4986890;28;20108;-49
2022/12/30 07:22:22;;;;;;;14.68;2.25;;;5.90;73.40;;;1.08;100.00;95555.84;4983098;28;20402;-52
2022/12/30 07:25:00;;;;;;;16.13;2.30;;;5.90;73.30;;;1.04;100.00;95558.06;4981098;28;20022;-50
2022/12/30 07:27:29;;;;;;;120.25;5.80;;;5.90;73.20;;;1.03;100.00;95558.25;4979381;28;20026;-52
2022/12/30 07:29:55;;;;;;;123.78;6.18;;;5.90;73.10;;;1.02;100.00;95557.44;4976571;28;20029;-56
2022/12/30 07:32:21;;;;;;;3.58;1.92;;;5.90;73.20;;;1.03;100.00;95563.50;4987831;28;20040;-51
2022/12/30 07:34:47;;;;;;;8.43;1.85;;;5.90;73.30;;;1.03;100.00;95558.25;4987142;28;20021;-55
2022/12/30 07:37:31;;;;;;;16.20;2.22;;;5.90;73.30;;;1.08;100.00;95563.69;4986659;28;20111;-54
2022/12/30 07:39:57;;;;;;;2.15;1.70;;;6.00;73.40;;;1.11;100.00;95571.16;4988183;28;20021;-53
2022/12/30 07:42:23;;;;;;;3.35;2.08;;;6.00;73.40;;;1.14;100.00;95562.88;4984286;28;20036;-49
2022/12/30 07:44:52;;;;;;;2.60;1.95;;;6.00;73.50;;;1.23;100.00;95568.72;4986781;28;20028;-50
2022/12/30 07:47:20;;;;;;;7.82;2.20;;;6.00;73.60;;;1.27;100.00;95556.78;4985783;28;20426;-52
2022/12/30 07:49:45;;;;;;;2.50;1.70;;;6.10;73.60;;;1.32;100.00;95568.28;4988107;28;20108;-52
2022/12/30 07:52:14;;;;;;;2.67;1.88;;;6.20;73.60;;;1.41;100.00;95563.63;4999661;28;20453;-55
2022/12/30 07:54:42;;;;;;;2.63;1.80;;;6.30;73.70;;;1.47;100.00;95572.47;4986867;28;20479;-54
2022/12/30 07:57:08;;;;;;;2.42;1.58;;;6.30;73.70;;;1.51;100.00;95565.81;5002374;28;20034;-49
2022/12/30 07:59:40;;;;;;;2.33;1.60;;;6.40;73.70;;;1.58;100.00;95575.25;4994263;28;20025;-49
2022/12/30 08:02:07;;;;;;;1.77;1.48;;;6.40;73.70;;;1.62;100.00;95568.56;4973786;28;20035;-52
2022/12/30 08:04:33;;;;;;;1.63;1.35;;;6.50;73.60;;;1.71;100.00;95565.72;4985858;28;20030;-50
2022/12/30 08:06:59;;;;;;;2.63;1.20;;;6.50;73.70;;;1.74;100.00;95567.91;4987532;28;20038;-52
2022/12/30 08:09:24;;;;;;;1.40;1.30;;;6.60;74.30;;;1.78;100.00;95563.84;4987845;28;20021;-50
2022/12/30 08:11:55;;;;;;;3.97;1.90;;;6.70;73.50;;;1.83;100.00;95561.41;4985450;28;20036;-53
2022/12/30 08:14:21;;;;;;;2.88;1.35;;;6.70;73.50;;;1.86;100.00;95553.09;5002788;28;20112;-51
2022/12/30 08:16:47;;;;;;;35.38;3.08;;;6.80;73.40;;;1.88;100.00;95556.34;4984805;28;20678;-49
2022/12/30 08:19:12;;;;;;;8.52;2.10;;;6.80;73.20;;;1.85;100.00;95541.00;4986414;28;20032;-49
2022/12/30 08:21:38;;;;;;;5.07;2.00;;;6.80;73.10;;;1.90;100.00;95529.84;4987765;28;20040;-52
2022/12/30 08:24:10;;;;;;;2.78;2.08;;;6.90;73.20;;;1.96;100.00;95534.25;5001777;28;20045;-51
2022/12/30 08:26:39;;;;;;;3.33;1.95;;;6.90;73.30;;;2.00;100.00;95533.59;5003833;28;20401;-56
2022/12/30 08:29:11;;;;;;;3.72;2.08;;;7.00;73.30;;;2.06;100.00;95529.34;4999231;28;20038;-49
2022/12/30 08:31:40;;;;;;;3.47;2.35;;;7.00;73.30;;;2.11;100.00;95528.72;4991108;28;20025;-51
2022/12/30 08:34:06;;;;;;;3.17;2.10;;;7.10;73.40;;;2.16;100.00;95523.59;4988874;28;20053;-53
2022/12/30 08:36:32;;;;;;;3.40;2.25;;;7.10;73.40;;;2.23;100.00;95521.75;4991264;28;20030;-58
2022/12/30 08:39:02;;;;;;;3.35;2.38;;;7.20;73.50;;;2.35;100.00;95535.81;4990868;28;20428;-56
2022/12/30 08:41:38;;;;;;;6.35;3.20;;;7.30;73.60;;;2.48;100.00;95538.34;4990369;28;20109;-49
2022/12/30 08:44:05;;;;;;;4.80;3.33;;;7.40;73.70;;;2.61;100.00;95536.63;4982133;28;20038;-51
2022/12/30 08:46:35;;;;;;;4.47;3.15;;;7.60;73.70;;;2.73;100.00;95529.66;4989805;28;20029;-51
2022/12/30 08:49:01;;;;;;;3.80;2.40;;;7.70;73.70;;;2.84;100.00;95522.84;4989569;28;20034;-52
2022/12/30 08:51:28;;;;;;;3.25;2.50;;;7.80;73.70;;;2.96;100.00;95519.28;4989562;28;20091;-49
2022/12/30 08:53:54;;;;;;;4.75;2.78;;;7.90;73.70;;;3.05;100.00;95519.81;4989388;28;20093;-49
2022/12/30 08:56:29;;;;;;;3.75;2.45;;;8.10;73.80;;;3.18;100.00;95510.97;4980613;28;20030;-51
2022/12/30 08:58:56;;;;;;;2.67;1.92;;;8.20;73.80;;;3.28;100.00;95513.88;4974689;28;20026;-50
2022/12/30 09:01:41;;;;;;;4.95;2.47;;;8.30;73.70;;;3.37;100.00;95514.41;4985980;28;20036;-49
2022/12/30 09:04:09;;;;;;;3.95;2.60;;;8.40;73.70;;;3.47;100.00;95518.09;4969493;28;20488;-54
2022/12/30 09:06:40;;;;;;;3.45;2.50;;;8.60;73.70;;;3.57;100.00;95517.56;4986747;28;20022;-49
2022/12/30 09:09:11;;;;;;;2.70;2.10;;;8.60;73.50;;;3.64;100.00;95510.41;4970169;28;20033;-53
2022/12/30 09:11:43;;;;;;;3.88;2.60;;;8.70;73.50;;;3.67;100.00;95499.44;4983604;28;20029;-51
2022/12/30 09:14:13;;;;;;;3.13;2.20;;;8.80;73.30;;;3.77;100.00;95506.81;4990845;28;20028;-52
2022/12/30 09:16:39;;;;;;;4.22;2.15;;;8.90;73.30;;;3.86;100.00;95505.47;4988297;28;20049;-52
2022/12/30 09:19:05;;;;;;;4.03;2.65;;;9.00;73.30;;;3.95;100.00;95495.41;4990902;28;20191;-49
2022/12/30 09:21:37;;;;;;;3.40;2.50;;;9.20;73.20;;;4.10;100.00;95497.59;4989654;28;20048;-50
2022/12/30 09:24:09;;;;;;;3.60;2.25;;;9.40;73.20;;;4.25;100.00;95497.19;4982861;28;20119;-49
2022/12/30 09:26:36;;;;;;;4.33;2.50;;;9.60;73.10;;;4.41;100.00;95494.69;4970053;28;20392;-49
2022/12/30 09:29:05;;;;;;;3.00;2.15;;;9.90;73.10;;;4.67;100.00;95495.31;4989598;28;20905;-49
2022/12/30 09:31:31;;;;;;;3.40;2.33;;;10.20;73.00;;;4.88;100.00;95491.25;4986099;28;20455;-50
2022/12/30 09:33:59;;;;;;;2.80;1.90;;;10.50;72.90;;;4.99;100.00;95479.91;4980934;28;20028;-49
2022/12/30 09:36:31;;;;;;;2.45;1.80;;;10.70;72.60;;;5.12;100.00;95492.06;4983036;28;20050;-53
2022/12/30 09:38:57;;;;;;;1.92;1.50;;;10.90;72.30;;;5.31;100.00;95487.41;4986512;28;20078;-49
2022/12/30 09:45:43;;;;;;;2.75;1.75;;;11.30;71.80;;;5.53;100.00;95467.25;4989590;28;20554;-54
2022/12/30 09:48:27;;;;;;;1.95;1.60;;;11.50;71.30;;;5.66;100.00;95466.16;4989143;28;20033;-52
2022/12/30 09:51:05;;;;;;;2.53;1.90;;;11.70;71.30;;;5.85;100.00;95469.41;5005087;28;20511;-50
2022/12/30 09:53:55;;;;;;;2.53;1.98;;;12.00;71.10;;;6.02;100.00;95454.44;4977262;28;20034;-51
2022/12/30 09:56:39;;;;;;;2.97;2.05;;;12.20;70.90;;;6.30;100.00;95455.41;4994273;28;20052;-54
2022/12/30 09:59:32;;;;;;;2.20;1.90;;;12.60;70.90;;;6.64;100.00;95450.91;4985712;28;20427;-51
2022/12/30 10:02:58;;;;;;;;;;;13.20;70.90;;;7.05;100.00;95442.69;4989608;28;20047;-50
2022/12/30 10:06:39;;;;;;;2.53;1.63;;;13.60;70.60;;;7.55;100.00;95450.50;4962570;28;19905;-52
2022/12/30 10:09:46;;;;;;;1.88;1.67;;;14.30;70.30;;;7.93;100.00;95447.94;4987172;28;20109;-48
2022/12/30 10:13:04;;;;;;;1.98;1.77;;;14.90;69.90;;;8.05;93.02;95438.78;5003568;28;20025;-52
2022/12/30 10:16:00;;;;;;;2.22;1.73;;;15.30;69.20;;;8.20;91.90;95427.50;4970577;28;20042;-52
2022/12/30 10:19:20;;;;;;;1.80;1.40;;;15.60;68.00;;;8.31;88.89;95425.72;4983787;28;20054;-57
2022/12/30 10:22:37;;;;;;;1.85;1.55;;;15.60;67.20;;;8.42;88.08;95422.13;4984718;28;20100;-50
2022/12/30 10:25:45;;;;;;;1.92;1.42;;;15.70;66.50;;;8.69;88.57;95415.94;4988059;28;20040;-54
2022/12/30 10:28:24;;;;;;;1.70;1.40;;;15.80;66.00;;;8.88;86.91;95416.31;5003214;28;20032;-52
2022/12/30 10:30:53;;;;;;;1.90;1.50;;;15.80;65.80;;;9.03;86.33;95411.09;4988497;28;20113;-54
2022/12/30 10:33:27;;;;;;;2.78;1.60;;;16.00;65.90;;;9.12;85.99;95406.88;4987586;28;20060;-55
2022/12/30 10:36:29;;;;;;;2.00;1.70;;;16.10;65.50;;;9.11;83.06;95405.25;4998077;28;20034;-54
2022/12/30 10:39:24;;;;;;;1.85;1.50;;;16.10;65.30;;;9.11;82.53;95384.00;4987696;28;20096;-51
2022/12/30 10:42:16;;;;;;;1.55;1.30;;;16.10;64.40;;;9.22;83.74;95384.84;4987717;28;20037;-54
2022/12/30 10:45:53;;;;;;;1.77;1.58;;;16.00;63.90;;;9.29;82.71;95377.44;4982970;28;20077;-53
2022/12/30 10:48:48;;;;;;;1.33;1.23;;;15.90;64.00;;;9.29;82.56;95372.13;4986949;28;20017;-56
2022/12/30 10:51:18;;;;;;;1.95;1.75;;;15.90;64.00;;;9.21;81.47;95380.56;5000194;28;20026;-49
2022/12/30 10:53:50;;;;;;;3.40;1.60;;;15.80;63.80;;;9.19;82.48;95377.41;4978632;28;20053;-55
2022/12/30 10:56:30;;;;;;;1.87;1.60;;;15.80;63.70;;;9.22;83.16;95374.22;4974092;28;20817;-50
2022/12/30 10:59:11;;;;;;;1.80;1.50;;;15.80;63.50;;;9.27;83.07;95379.53;4986052;28;20373;-54
2022/12/30 11:01:41;;;;;;;1.80;1.63;;;15.80;63.40;;;9.29;83.10;95364.13;4999366;28;20038;-56
2022/12/30 11:04:41;;;;;;;2.38;1.65;;;15.70;63.30;;;9.36;82.26;95372.66;4987120;28;20111;-56
2022/12/30 11:07:15;;;;;;;13.20;2.70;;;15.70;63.40;;;9.41;82.19;95371.88;5000442;28;20058;-52
2022/12/30 11:09:44;;;;;;;1.92;1.73;;;15.70;63.10;;;9.37;82.00;95361.00;4988359;28;20033;-52
2022/12/30 11:15:24;;;;;;;1.65;1.50;;;15.60;62.70;;;9.15;83.70;95371.81;4988074;28;20084;-55
2022/12/30 11:17:58;;;;;;;1.70;1.60;;;15.50;62.70;;;9.15;83.54;95368.34;4986648;28;20084;-55
2022/12/30 11:20:43;;;;;;;1.83;1.70;;;15.40;62.60;;;9.20;83.41;95363.84;4987061;28;20145;-54
2022/12/30 11:23:38;;;;;;;1.90;1.70;;;15.20;62.60;;;9.16;83.08;95361.97;5000502;28;20026;-55
2022/12/30 11:26:21;;;;;;;2.13;1.60;;;15.20;62.70;;;9.15;83.00;95369.16;4980453;28;20025;-57
2022/12/30 11:29:13;;;;;;;2.03;1.80;;;15.10;62.70;;;9.05;82.66;95363.78;4981900;28;20032;-56
2022/12/30 11:31:53;;;;;;;1.60;1.50;;;15.10;62.70;;;9.04;83.97;95363.00;4982630;28;20436;-54
2022/12/30 11:34:34;;;;;;;2.28;1.65;;;15.10;62.70;;;9.10;84.86;95365.66;4983242;28;20026;-58
2022/12/30 11:37:30;;;;;;;2.25;1.58;;;15.10;62.70;;;9.17;84.12;95375.00;4983650;28;20030;-55
2022/12/30 11:40:36;;;;;;;1.60;1.50;;;15.10;62.70;;;9.14;82.56;95364.88;4988511;28;20034;-55
2022/12/30 11:43:18;;;;;;;1.55;1.20;;;15.10;62.40;;;9.21;81.50;95360.16;4986724;28;20429;-56
2022/12/30 11:46:15;;;;;;;1.90;1.40;;;15.20;62.20;;;9.24;82.12;95358.78;4988698;28;20398;-55
2022/12/30 11:48:57;;;;;;;1.60;1.48;;;15.30;62.00;;;9.23;81.52;95362.53;4979905;28;20052;-55
2022/12/30 11:51:43;;;;;;;2.15;1.60;;;15.40;61.80;;;9.31;82.49;95362.03;4987689;28;20025;-56
2022/12/30 11:54:12;;;;;;;2.25;1.30;;;15.50;61.80;;;9.39;82.42;95364.16;4986592;28;20061;-53
2022/12/30 11:57:05;;;;;;;1.52;1.40;;;15.60;61.60;;;9.46;80.90;95358.59;5006409;28;20046;-57
2022/12/30 11:59:53;;;;;;;1.58;1.10;;;15.70;61.20;;;9.40;81.08;95362.28;4990518;28;20037;-56